<?xml version="1.0" encoding="UTF-8" standalone="no" ?>
<gpx xmlns="http://www.topografix.com/GPX/1/1" xmlns:xsi="http://www.w3.org/2001/XMLSchema-instance" xsi:schemaLocation="http://www.topografix.com/GPX/1/1 http://www.topografix.com/GPX/1/1/gpx.xsd" version="1.1" creator="VisuGPX - https://www.visugpx.com">
  <metadata>
    <name>Marche Adeps 10 KMs Feluy. 23 Fev 2014.</name>
    <desc><![CDATA[Marche Adeps 10 KMs Feluy. 23 Fev 2014.]]></desc>
  </metadata>
  <trk>
    <name><![CDATA[Sequence 1]]></name>
    <trkseg>
      <trkpt lat="50.56375" lon="4.25125">
        <ele>90</ele>
        <time>2014-02-23T07:50:31Z</time>
      </trkpt>
      <trkpt lat="50.56376" lon="4.25097">
        <ele>98</ele>
        <time>2014-02-23T07:50:43Z</time>
      </trkpt>
      <trkpt lat="50.56395" lon="4.25102">
        <ele>106</ele>
        <time>2014-02-23T07:50:56Z</time>
      </trkpt>
    </trkseg>
  </trk>
  <trk>
    <name><![CDATA[Sequence 2]]></name>
    <trkseg>
      <trkpt lat="50.56385" lon="4.25128">
        <ele>99</ele>
        <time>2014-02-23T07:51:15Z</time>
      </trkpt>
      <trkpt lat="50.56388" lon="4.2512">
        <ele>85</ele>
        <time>2014-02-23T07:51:34Z</time>
      </trkpt>
      <trkpt lat="50.56389" lon="4.25122">
        <ele>81</ele>
        <time>2014-02-23T07:51:39Z</time>
      </trkpt>
      <trkpt lat="50.56401" lon="4.25284">
        <ele>96</ele>
        <time>2014-02-23T07:53:39Z</time>
      </trkpt>
      <trkpt lat="50.56399" lon="4.25291">
        <ele>92</ele>
        <time>2014-02-23T07:53:57Z</time>
      </trkpt>
      <trkpt lat="50.56396" lon="4.25293">
        <ele>92</ele>
        <time>2014-02-23T07:54:07Z</time>
      </trkpt>
      <trkpt lat="50.56393" lon="4.25312">
        <ele>83</ele>
        <time>2014-02-23T07:54:21Z</time>
      </trkpt>
      <trkpt lat="50.56391" lon="4.25317">
        <ele>85</ele>
        <time>2014-02-23T07:54:34Z</time>
      </trkpt>
      <trkpt lat="50.56391" lon="4.25317">
        <ele>85</ele>
        <time>2014-02-23T07:54:35Z</time>
      </trkpt>
      <trkpt lat="50.56379" lon="4.2534">
        <ele>89</ele>
        <time>2014-02-23T07:54:46Z</time>
      </trkpt>
      <trkpt lat="50.5637" lon="4.25376">
        <ele>86</ele>
        <time>2014-02-23T07:55:07Z</time>
      </trkpt>
      <trkpt lat="50.56364" lon="4.25392">
        <ele>88</ele>
        <time>2014-02-23T07:55:16Z</time>
      </trkpt>
      <trkpt lat="50.56362" lon="4.25396">
        <ele>90</ele>
        <time>2014-02-23T07:55:19Z</time>
      </trkpt>
      <trkpt lat="50.56366" lon="4.25418">
        <ele>80</ele>
        <time>2014-02-23T07:55:33Z</time>
      </trkpt>
      <trkpt lat="50.56374" lon="4.25427">
        <ele>83</ele>
        <time>2014-02-23T07:55:44Z</time>
      </trkpt>
      <trkpt lat="50.56383" lon="4.25429">
        <ele>84</ele>
        <time>2014-02-23T07:55:52Z</time>
      </trkpt>
      <trkpt lat="50.56389" lon="4.25438">
        <ele>79</ele>
        <time>2014-02-23T07:56:03Z</time>
      </trkpt>
      <trkpt lat="50.564" lon="4.25439">
        <ele>70</ele>
        <time>2014-02-23T07:56:14Z</time>
      </trkpt>
      <trkpt lat="50.56411" lon="4.25453">
        <ele>71</ele>
        <time>2014-02-23T07:56:28Z</time>
      </trkpt>
      <trkpt lat="50.56419" lon="4.25461">
        <ele>64</ele>
        <time>2014-02-23T07:56:39Z</time>
      </trkpt>
      <trkpt lat="50.56423" lon="4.25465">
        <ele>61</ele>
        <time>2014-02-23T07:56:47Z</time>
      </trkpt>
      <trkpt lat="50.56436" lon="4.25479">
        <ele>52</ele>
        <time>2014-02-23T07:57:05Z</time>
      </trkpt>
      <trkpt lat="50.56439" lon="4.25481">
        <ele>50</ele>
        <time>2014-02-23T07:57:09Z</time>
      </trkpt>
      <trkpt lat="50.56452" lon="4.25498">
        <ele>36</ele>
        <time>2014-02-23T07:57:29Z</time>
      </trkpt>
      <trkpt lat="50.56455" lon="4.25501">
        <ele>32</ele>
        <time>2014-02-23T07:57:32Z</time>
      </trkpt>
      <trkpt lat="50.56469" lon="4.2553">
        <ele>28</ele>
        <time>2014-02-23T07:57:43Z</time>
      </trkpt>
      <trkpt lat="50.56478" lon="4.25547">
        <ele>25</ele>
        <time>2014-02-23T07:57:53Z</time>
      </trkpt>
      <trkpt lat="50.56477" lon="4.25566">
        <ele>26</ele>
        <time>2014-02-23T07:58:04Z</time>
      </trkpt>
      <trkpt lat="50.56459" lon="4.25626">
        <ele>42</ele>
        <time>2014-02-23T07:58:25Z</time>
      </trkpt>
      <trkpt lat="50.56449" lon="4.25646">
        <ele>46</ele>
        <time>2014-02-23T07:58:33Z</time>
      </trkpt>
      <trkpt lat="50.56437" lon="4.2567">
        <ele>50</ele>
        <time>2014-02-23T07:58:45Z</time>
      </trkpt>
      <trkpt lat="50.56425" lon="4.25687">
        <ele>55</ele>
        <time>2014-02-23T07:58:55Z</time>
      </trkpt>
      <trkpt lat="50.56415" lon="4.257">
        <ele>66</ele>
        <time>2014-02-23T07:59:01Z</time>
      </trkpt>
      <trkpt lat="50.56412" lon="4.2572">
        <ele>72</ele>
        <time>2014-02-23T07:59:10Z</time>
      </trkpt>
      <trkpt lat="50.56416" lon="4.25758">
        <ele>77</ele>
        <time>2014-02-23T07:59:30Z</time>
      </trkpt>
      <trkpt lat="50.56417" lon="4.25764">
        <ele>76</ele>
        <time>2014-02-23T07:59:33Z</time>
      </trkpt>
      <trkpt lat="50.56421" lon="4.25789">
        <ele>79</ele>
        <time>2014-02-23T07:59:44Z</time>
      </trkpt>
      <trkpt lat="50.56421" lon="4.25822">
        <ele>82</ele>
        <time>2014-02-23T07:59:55Z</time>
      </trkpt>
      <trkpt lat="50.56414" lon="4.25851">
        <ele>91</ele>
        <time>2014-02-23T08:00:05Z</time>
      </trkpt>
      <trkpt lat="50.56405" lon="4.25878">
        <ele>94</ele>
        <time>2014-02-23T08:00:16Z</time>
      </trkpt>
      <trkpt lat="50.56398" lon="4.2589">
        <ele>91</ele>
        <time>2014-02-23T08:00:27Z</time>
      </trkpt>
      <trkpt lat="50.56402" lon="4.25911">
        <ele>89</ele>
        <time>2014-02-23T08:00:38Z</time>
      </trkpt>
      <trkpt lat="50.56406" lon="4.25926">
        <ele>85</ele>
        <time>2014-02-23T08:00:49Z</time>
      </trkpt>
      <trkpt lat="50.56409" lon="4.25936">
        <ele>79</ele>
        <time>2014-02-23T08:01:00Z</time>
      </trkpt>
      <trkpt lat="50.56412" lon="4.25953">
        <ele>80</ele>
        <time>2014-02-23T08:01:11Z</time>
      </trkpt>
      <trkpt lat="50.56395" lon="4.2598">
        <ele>87</ele>
        <time>2014-02-23T08:01:30Z</time>
      </trkpt>
      <trkpt lat="50.56391" lon="4.25982">
        <ele>86</ele>
        <time>2014-02-23T08:01:33Z</time>
      </trkpt>
      <trkpt lat="50.56378" lon="4.25985">
        <ele>86</ele>
        <time>2014-02-23T08:01:44Z</time>
      </trkpt>
      <trkpt lat="50.56368" lon="4.25985">
        <ele>80</ele>
        <time>2014-02-23T08:01:55Z</time>
      </trkpt>
      <trkpt lat="50.56357" lon="4.25978">
        <ele>80</ele>
        <time>2014-02-23T08:02:06Z</time>
      </trkpt>
      <trkpt lat="50.56346" lon="4.25973">
        <ele>81</ele>
        <time>2014-02-23T08:02:17Z</time>
      </trkpt>
      <trkpt lat="50.56331" lon="4.25967">
        <ele>80</ele>
        <time>2014-02-23T08:02:28Z</time>
      </trkpt>
      <trkpt lat="50.56302" lon="4.2596">
        <ele>80</ele>
        <time>2014-02-23T08:02:49Z</time>
      </trkpt>
      <trkpt lat="50.56301" lon="4.25959">
        <ele>80</ele>
        <time>2014-02-23T08:02:50Z</time>
      </trkpt>
      <trkpt lat="50.56291" lon="4.25964">
        <ele>92</ele>
        <time>2014-02-23T08:03:01Z</time>
      </trkpt>
      <trkpt lat="50.56287" lon="4.25986">
        <ele>95</ele>
        <time>2014-02-23T08:03:12Z</time>
      </trkpt>
      <trkpt lat="50.56289" lon="4.26006">
        <ele>95</ele>
        <time>2014-02-23T08:03:23Z</time>
      </trkpt>
      <trkpt lat="50.56296" lon="4.26028">
        <ele>93</ele>
        <time>2014-02-23T08:03:34Z</time>
      </trkpt>
      <trkpt lat="50.56305" lon="4.26041">
        <ele>89</ele>
        <time>2014-02-23T08:03:45Z</time>
      </trkpt>
      <trkpt lat="50.56314" lon="4.26056">
        <ele>86</ele>
        <time>2014-02-23T08:03:56Z</time>
      </trkpt>
      <trkpt lat="50.56324" lon="4.26063">
        <ele>81</ele>
        <time>2014-02-23T08:04:07Z</time>
      </trkpt>
      <trkpt lat="50.56331" lon="4.26084">
        <ele>79</ele>
        <time>2014-02-23T08:04:18Z</time>
      </trkpt>
      <trkpt lat="50.56339" lon="4.26118">
        <ele>76</ele>
        <time>2014-02-23T08:04:36Z</time>
      </trkpt>
      <trkpt lat="50.56341" lon="4.26123">
        <ele>75</ele>
        <time>2014-02-23T08:04:40Z</time>
      </trkpt>
      <trkpt lat="50.56349" lon="4.26164">
        <ele>77</ele>
        <time>2014-02-23T08:04:57Z</time>
      </trkpt>
      <trkpt lat="50.56351" lon="4.26195">
        <ele>82</ele>
        <time>2014-02-23T08:05:09Z</time>
      </trkpt>
      <trkpt lat="50.56352" lon="4.26206">
        <ele>83</ele>
        <time>2014-02-23T08:05:13Z</time>
      </trkpt>
      <trkpt lat="50.56355" lon="4.26237">
        <ele>88</ele>
        <time>2014-02-23T08:05:24Z</time>
      </trkpt>
      <trkpt lat="50.56357" lon="4.26266">
        <ele>91</ele>
        <time>2014-02-23T08:05:35Z</time>
      </trkpt>
      <trkpt lat="50.56361" lon="4.26293">
        <ele>93</ele>
        <time>2014-02-23T08:05:47Z</time>
      </trkpt>
      <trkpt lat="50.56364" lon="4.26319">
        <ele>95</ele>
        <time>2014-02-23T08:05:57Z</time>
      </trkpt>
      <trkpt lat="50.56367" lon="4.26344">
        <ele>97</ele>
        <time>2014-02-23T08:06:08Z</time>
      </trkpt>
      <trkpt lat="50.56369" lon="4.26366">
        <ele>100</ele>
        <time>2014-02-23T08:06:19Z</time>
      </trkpt>
      <trkpt lat="50.56375" lon="4.26384">
        <ele>92</ele>
        <time>2014-02-23T08:06:30Z</time>
      </trkpt>
      <trkpt lat="50.56383" lon="4.26401">
        <ele>89</ele>
        <time>2014-02-23T08:06:42Z</time>
      </trkpt>
      <trkpt lat="50.56389" lon="4.26424">
        <ele>86</ele>
        <time>2014-02-23T08:06:54Z</time>
      </trkpt>
      <trkpt lat="50.56398" lon="4.26432">
        <ele>84</ele>
        <time>2014-02-23T08:07:03Z</time>
      </trkpt>
      <trkpt lat="50.56397" lon="4.26446">
        <ele>78</ele>
        <time>2014-02-23T08:07:15Z</time>
      </trkpt>
      <trkpt lat="50.56408" lon="4.26486">
        <ele>84</ele>
        <time>2014-02-23T08:07:29Z</time>
      </trkpt>
      <trkpt lat="50.56412" lon="4.26501">
        <ele>88</ele>
        <time>2014-02-23T08:07:36Z</time>
      </trkpt>
      <trkpt lat="50.56421" lon="4.26533">
        <ele>86</ele>
        <time>2014-02-23T08:07:54Z</time>
      </trkpt>
      <trkpt lat="50.56425" lon="4.26537">
        <ele>86</ele>
        <time>2014-02-23T08:07:59Z</time>
      </trkpt>
      <trkpt lat="50.5643" lon="4.26547">
        <ele>80</ele>
        <time>2014-02-23T08:08:09Z</time>
      </trkpt>
      <trkpt lat="50.56436" lon="4.26564">
        <ele>80</ele>
        <time>2014-02-23T08:08:20Z</time>
      </trkpt>
      <trkpt lat="50.56447" lon="4.26589">
        <ele>82</ele>
        <time>2014-02-23T08:08:35Z</time>
      </trkpt>
      <trkpt lat="50.56452" lon="4.26606">
        <ele>78</ele>
        <time>2014-02-23T08:08:45Z</time>
      </trkpt>
      <trkpt lat="50.56464" lon="4.26635">
        <ele>74</ele>
        <time>2014-02-23T08:08:59Z</time>
      </trkpt>
      <trkpt lat="50.56467" lon="4.26645">
        <ele>75</ele>
        <time>2014-02-23T08:09:04Z</time>
      </trkpt>
      <trkpt lat="50.56483" lon="4.2667">
        <ele>69</ele>
        <time>2014-02-23T08:09:20Z</time>
      </trkpt>
      <trkpt lat="50.5649" lon="4.26679">
        <ele>65</ele>
        <time>2014-02-23T08:09:26Z</time>
      </trkpt>
      <trkpt lat="50.56504" lon="4.26697">
        <ele>62</ele>
        <time>2014-02-23T08:09:38Z</time>
      </trkpt>
      <trkpt lat="50.56514" lon="4.26718">
        <ele>62</ele>
        <time>2014-02-23T08:09:52Z</time>
      </trkpt>
      <trkpt lat="50.56523" lon="4.2673">
        <ele>66</ele>
        <time>2014-02-23T08:10:04Z</time>
      </trkpt>
      <trkpt lat="50.56525" lon="4.26747">
        <ele>67</ele>
        <time>2014-02-23T08:10:10Z</time>
      </trkpt>
      <trkpt lat="50.56518" lon="4.26769">
        <ele>56</ele>
        <time>2014-02-23T08:10:23Z</time>
      </trkpt>
      <trkpt lat="50.56515" lon="4.26789">
        <ele>57</ele>
        <time>2014-02-23T08:10:37Z</time>
      </trkpt>
      <trkpt lat="50.56513" lon="4.26804">
        <ele>61</ele>
        <time>2014-02-23T08:10:43Z</time>
      </trkpt>
      <trkpt lat="50.56501" lon="4.26844">
        <ele>66</ele>
        <time>2014-02-23T08:11:01Z</time>
      </trkpt>
      <trkpt lat="50.56497" lon="4.26847">
        <ele>65</ele>
        <time>2014-02-23T08:11:05Z</time>
      </trkpt>
      <trkpt lat="50.56485" lon="4.26845">
        <ele>60</ele>
        <time>2014-02-23T08:11:17Z</time>
      </trkpt>
      <trkpt lat="50.56461" lon="4.26886">
        <ele>64</ele>
        <time>2014-02-23T08:11:37Z</time>
      </trkpt>
      <trkpt lat="50.5646" lon="4.26884">
        <ele>63</ele>
        <time>2014-02-23T08:11:38Z</time>
      </trkpt>
      <trkpt lat="50.56433" lon="4.26952">
        <ele>92</ele>
        <time>2014-02-23T08:11:59Z</time>
      </trkpt>
      <trkpt lat="50.56431" lon="4.26955">
        <ele>92</ele>
        <time>2014-02-23T08:12:00Z</time>
      </trkpt>
      <trkpt lat="50.56422" lon="4.26988">
        <ele>99</ele>
        <time>2014-02-23T08:12:11Z</time>
      </trkpt>
      <trkpt lat="50.56416" lon="4.27011">
        <ele>103</ele>
        <time>2014-02-23T08:12:23Z</time>
      </trkpt>
      <trkpt lat="50.56406" lon="4.27027">
        <ele>100</ele>
        <time>2014-02-23T08:12:33Z</time>
      </trkpt>
      <trkpt lat="50.56391" lon="4.27022">
        <ele>98</ele>
        <time>2014-02-23T08:12:45Z</time>
      </trkpt>
      <trkpt lat="50.56381" lon="4.27024">
        <ele>99</ele>
        <time>2014-02-23T08:12:55Z</time>
      </trkpt>
      <trkpt lat="50.56367" lon="4.27024">
        <ele>95</ele>
        <time>2014-02-23T08:13:06Z</time>
      </trkpt>
      <trkpt lat="50.56351" lon="4.27017">
        <ele>103</ele>
        <time>2014-02-23T08:13:17Z</time>
      </trkpt>
      <trkpt lat="50.56337" lon="4.27015">
        <ele>107</ele>
        <time>2014-02-23T08:13:28Z</time>
      </trkpt>
      <trkpt lat="50.56323" lon="4.27015">
        <ele>104</ele>
        <time>2014-02-23T08:13:39Z</time>
      </trkpt>
      <trkpt lat="50.56309" lon="4.27012">
        <ele>105</ele>
        <time>2014-02-23T08:13:51Z</time>
      </trkpt>
      <trkpt lat="50.56298" lon="4.27009">
        <ele>101</ele>
        <time>2014-02-23T08:14:01Z</time>
      </trkpt>
      <trkpt lat="50.56285" lon="4.27002">
        <ele>102</ele>
        <time>2014-02-23T08:14:12Z</time>
      </trkpt>
      <trkpt lat="50.56273" lon="4.26997">
        <ele>92</ele>
        <time>2014-02-23T08:14:23Z</time>
      </trkpt>
      <trkpt lat="50.56253" lon="4.26989">
        <ele>94</ele>
        <time>2014-02-23T08:14:38Z</time>
      </trkpt>
      <trkpt lat="50.56243" lon="4.2699">
        <ele>95</ele>
        <time>2014-02-23T08:14:45Z</time>
      </trkpt>
      <trkpt lat="50.56211" lon="4.26969">
        <ele>97</ele>
        <time>2014-02-23T08:15:06Z</time>
      </trkpt>
      <trkpt lat="50.56209" lon="4.26967">
        <ele>97</ele>
        <time>2014-02-23T08:15:07Z</time>
      </trkpt>
      <trkpt lat="50.56179" lon="4.26949">
        <ele>101</ele>
        <time>2014-02-23T08:15:28Z</time>
      </trkpt>
      <trkpt lat="50.56171" lon="4.26949">
        <ele>102</ele>
        <time>2014-02-23T08:15:34Z</time>
      </trkpt>
      <trkpt lat="50.56161" lon="4.26948">
        <ele>101</ele>
        <time>2014-02-23T08:15:43Z</time>
      </trkpt>
      <trkpt lat="50.56153" lon="4.26947">
        <ele>102</ele>
        <time>2014-02-23T08:15:51Z</time>
      </trkpt>
      <trkpt lat="50.56139" lon="4.26945">
        <ele>101</ele>
        <time>2014-02-23T08:16:02Z</time>
      </trkpt>
      <trkpt lat="50.56127" lon="4.26944">
        <ele>105</ele>
        <time>2014-02-23T08:16:13Z</time>
      </trkpt>
      <trkpt lat="50.56104" lon="4.26928">
        <ele>103</ele>
        <time>2014-02-23T08:16:31Z</time>
      </trkpt>
      <trkpt lat="50.5609" lon="4.26921">
        <ele>105</ele>
        <time>2014-02-23T08:16:41Z</time>
      </trkpt>
      <trkpt lat="50.56075" lon="4.26918">
        <ele>97</ele>
        <time>2014-02-23T08:16:54Z</time>
      </trkpt>
      <trkpt lat="50.56063" lon="4.26915">
        <ele>99</ele>
        <time>2014-02-23T08:17:04Z</time>
      </trkpt>
      <trkpt lat="50.56055" lon="4.26917">
        <ele>97</ele>
        <time>2014-02-23T08:17:12Z</time>
      </trkpt>
      <trkpt lat="50.56046" lon="4.26917">
        <ele>99</ele>
        <time>2014-02-23T08:17:19Z</time>
      </trkpt>
      <trkpt lat="50.56032" lon="4.26912">
        <ele>101</ele>
        <time>2014-02-23T08:17:30Z</time>
      </trkpt>
      <trkpt lat="50.56015" lon="4.26905">
        <ele>95</ele>
        <time>2014-02-23T08:17:42Z</time>
      </trkpt>
      <trkpt lat="50.56001" lon="4.26895">
        <ele>89</ele>
        <time>2014-02-23T08:17:52Z</time>
      </trkpt>
      <trkpt lat="50.55967" lon="4.26863">
        <ele>102</ele>
        <time>2014-02-23T08:18:11Z</time>
      </trkpt>
      <trkpt lat="50.55947" lon="4.26846">
        <ele>104</ele>
        <time>2014-02-23T08:18:22Z</time>
      </trkpt>
      <trkpt lat="50.55941" lon="4.2684">
        <ele>103</ele>
        <time>2014-02-23T08:18:26Z</time>
      </trkpt>
      <trkpt lat="50.55912" lon="4.26826">
        <ele>102</ele>
        <time>2014-02-23T08:18:45Z</time>
      </trkpt>
      <trkpt lat="50.55901" lon="4.26822">
        <ele>99</ele>
        <time>2014-02-23T08:18:52Z</time>
      </trkpt>
      <trkpt lat="50.55894" lon="4.26819">
        <ele>96</ele>
        <time>2014-02-23T08:18:58Z</time>
      </trkpt>
      <trkpt lat="50.55881" lon="4.26815">
        <ele>94</ele>
        <time>2014-02-23T08:19:09Z</time>
      </trkpt>
      <trkpt lat="50.55868" lon="4.26811">
        <ele>89</ele>
        <time>2014-02-23T08:19:20Z</time>
      </trkpt>
      <trkpt lat="50.55846" lon="4.26803">
        <ele>85</ele>
        <time>2014-02-23T08:19:33Z</time>
      </trkpt>
      <trkpt lat="50.55815" lon="4.26786">
        <ele>94</ele>
        <time>2014-02-23T08:19:52Z</time>
      </trkpt>
      <trkpt lat="50.55807" lon="4.26787">
        <ele>94</ele>
        <time>2014-02-23T08:19:57Z</time>
      </trkpt>
      <trkpt lat="50.55795" lon="4.26785">
        <ele>103</ele>
        <time>2014-02-23T08:20:06Z</time>
      </trkpt>
      <trkpt lat="50.55781" lon="4.26782">
        <ele>108</ele>
        <time>2014-02-23T08:20:16Z</time>
      </trkpt>
      <trkpt lat="50.55765" lon="4.26773">
        <ele>103</ele>
        <time>2014-02-23T08:20:28Z</time>
      </trkpt>
      <trkpt lat="50.55751" lon="4.26767">
        <ele>101</ele>
        <time>2014-02-23T08:20:38Z</time>
      </trkpt>
      <trkpt lat="50.55735" lon="4.26765">
        <ele>105</ele>
        <time>2014-02-23T08:20:48Z</time>
      </trkpt>
      <trkpt lat="50.55721" lon="4.2676">
        <ele>110</ele>
        <time>2014-02-23T08:21:00Z</time>
      </trkpt>
      <trkpt lat="50.55709" lon="4.26757">
        <ele>111</ele>
        <time>2014-02-23T08:21:10Z</time>
      </trkpt>
      <trkpt lat="50.55695" lon="4.26751">
        <ele>116</ele>
        <time>2014-02-23T08:21:21Z</time>
      </trkpt>
      <trkpt lat="50.5568" lon="4.26746">
        <ele>115</ele>
        <time>2014-02-23T08:21:33Z</time>
      </trkpt>
      <trkpt lat="50.55667" lon="4.26741">
        <ele>113</ele>
        <time>2014-02-23T08:21:43Z</time>
      </trkpt>
      <trkpt lat="50.55652" lon="4.26738">
        <ele>111</ele>
        <time>2014-02-23T08:21:54Z</time>
      </trkpt>
      <trkpt lat="50.5564" lon="4.26739">
        <ele>106</ele>
        <time>2014-02-23T08:22:05Z</time>
      </trkpt>
      <trkpt lat="50.55628" lon="4.26738">
        <ele>107</ele>
        <time>2014-02-23T08:22:16Z</time>
      </trkpt>
      <trkpt lat="50.5561" lon="4.26729">
        <ele>108</ele>
        <time>2014-02-23T08:22:27Z</time>
      </trkpt>
      <trkpt lat="50.55589" lon="4.26718">
        <ele>110</ele>
        <time>2014-02-23T08:22:39Z</time>
      </trkpt>
      <trkpt lat="50.55567" lon="4.26709">
        <ele>111</ele>
        <time>2014-02-23T08:22:51Z</time>
      </trkpt>
      <trkpt lat="50.55554" lon="4.26705">
        <ele>111</ele>
        <time>2014-02-23T08:23:00Z</time>
      </trkpt>
      <trkpt lat="50.5554" lon="4.267">
        <ele>113</ele>
        <time>2014-02-23T08:23:11Z</time>
      </trkpt>
      <trkpt lat="50.55526" lon="4.26697">
        <ele>111</ele>
        <time>2014-02-23T08:23:22Z</time>
      </trkpt>
      <trkpt lat="50.55508" lon="4.26693">
        <ele>110</ele>
        <time>2014-02-23T08:23:34Z</time>
      </trkpt>
      <trkpt lat="50.55494" lon="4.26692">
        <ele>115</ele>
        <time>2014-02-23T08:23:46Z</time>
      </trkpt>
      <trkpt lat="50.55482" lon="4.26688">
        <ele>115</ele>
        <time>2014-02-23T08:23:55Z</time>
      </trkpt>
      <trkpt lat="50.5546" lon="4.2668">
        <ele>113</ele>
        <time>2014-02-23T08:24:09Z</time>
      </trkpt>
      <trkpt lat="50.55443" lon="4.26675">
        <ele>111</ele>
        <time>2014-02-23T08:24:22Z</time>
      </trkpt>
      <trkpt lat="50.55437" lon="4.26677">
        <ele>108</ele>
        <time>2014-02-23T08:24:28Z</time>
      </trkpt>
      <trkpt lat="50.55419" lon="4.26675">
        <ele>104</ele>
        <time>2014-02-23T08:24:40Z</time>
      </trkpt>
      <trkpt lat="50.55392" lon="4.26666">
        <ele>105</ele>
        <time>2014-02-23T08:25:00Z</time>
      </trkpt>
      <trkpt lat="50.55391" lon="4.26666">
        <ele>105</ele>
        <time>2014-02-23T08:25:01Z</time>
      </trkpt>
      <trkpt lat="50.55374" lon="4.26665">
        <ele>104</ele>
        <time>2014-02-23T08:25:15Z</time>
      </trkpt>
      <trkpt lat="50.55366" lon="4.26666">
        <ele>106</ele>
        <time>2014-02-23T08:25:23Z</time>
      </trkpt>
      <trkpt lat="50.55337" lon="4.26659">
        <ele>106</ele>
        <time>2014-02-23T08:25:44Z</time>
      </trkpt>
      <trkpt lat="50.55332" lon="4.26658">
        <ele>106</ele>
        <time>2014-02-23T08:25:47Z</time>
      </trkpt>
      <trkpt lat="50.55312" lon="4.2665">
        <ele>105</ele>
        <time>2014-02-23T08:26:00Z</time>
      </trkpt>
      <trkpt lat="50.55302" lon="4.26644">
        <ele>106</ele>
        <time>2014-02-23T08:26:08Z</time>
      </trkpt>
      <trkpt lat="50.55278" lon="4.26645">
        <ele>108</ele>
        <time>2014-02-23T08:26:23Z</time>
      </trkpt>
      <trkpt lat="50.55272" lon="4.2664">
        <ele>106</ele>
        <time>2014-02-23T08:26:29Z</time>
      </trkpt>
      <trkpt lat="50.55261" lon="4.26634">
        <ele>104</ele>
        <time>2014-02-23T08:26:40Z</time>
      </trkpt>
      <trkpt lat="50.5525" lon="4.26635">
        <ele>101</ele>
        <time>2014-02-23T08:26:51Z</time>
      </trkpt>
      <trkpt lat="50.55235" lon="4.2663">
        <ele>99</ele>
        <time>2014-02-23T08:27:03Z</time>
      </trkpt>
      <trkpt lat="50.55221" lon="4.26631">
        <ele>98</ele>
        <time>2014-02-23T08:27:14Z</time>
      </trkpt>
      <trkpt lat="50.55197" lon="4.26628">
        <ele>99</ele>
        <time>2014-02-23T08:27:31Z</time>
      </trkpt>
      <trkpt lat="50.55192" lon="4.26626">
        <ele>98</ele>
        <time>2014-02-23T08:27:35Z</time>
      </trkpt>
      <trkpt lat="50.55173" lon="4.26625">
        <ele>96</ele>
        <time>2014-02-23T08:27:46Z</time>
      </trkpt>
      <trkpt lat="50.55156" lon="4.26624">
        <ele>96</ele>
        <time>2014-02-23T08:27:57Z</time>
      </trkpt>
      <trkpt lat="50.55136" lon="4.26626">
        <ele>94</ele>
        <time>2014-02-23T08:28:10Z</time>
      </trkpt>
      <trkpt lat="50.55123" lon="4.26625">
        <ele>93</ele>
        <time>2014-02-23T08:28:19Z</time>
      </trkpt>
      <trkpt lat="50.55109" lon="4.2662">
        <ele>93</ele>
        <time>2014-02-23T08:28:31Z</time>
      </trkpt>
      <trkpt lat="50.55098" lon="4.26617">
        <ele>91</ele>
        <time>2014-02-23T08:28:41Z</time>
      </trkpt>
      <trkpt lat="50.55084" lon="4.26617">
        <ele>92</ele>
        <time>2014-02-23T08:28:52Z</time>
      </trkpt>
      <trkpt lat="50.55065" lon="4.26599">
        <ele>92</ele>
        <time>2014-02-23T08:29:08Z</time>
      </trkpt>
      <trkpt lat="50.55031" lon="4.26596">
        <ele>96</ele>
        <time>2014-02-23T08:29:21Z</time>
      </trkpt>
      <trkpt lat="50.55023" lon="4.26599">
        <ele>95</ele>
        <time>2014-02-23T08:29:25Z</time>
      </trkpt>
      <trkpt lat="50.55007" lon="4.26603">
        <ele>94</ele>
        <time>2014-02-23T08:29:36Z</time>
      </trkpt>
      <trkpt lat="50.54994" lon="4.26602">
        <ele>93</ele>
        <time>2014-02-23T08:29:47Z</time>
      </trkpt>
      <trkpt lat="50.54981" lon="4.26605">
        <ele>93</ele>
        <time>2014-02-23T08:29:58Z</time>
      </trkpt>
      <trkpt lat="50.54968" lon="4.26606">
        <ele>93</ele>
        <time>2014-02-23T08:30:09Z</time>
      </trkpt>
      <trkpt lat="50.54952" lon="4.26603">
        <ele>97</ele>
        <time>2014-02-23T08:30:24Z</time>
      </trkpt>
      <trkpt lat="50.54939" lon="4.26595">
        <ele>96</ele>
        <time>2014-02-23T08:30:31Z</time>
      </trkpt>
      <trkpt lat="50.54925" lon="4.26598">
        <ele>99</ele>
        <time>2014-02-23T08:30:42Z</time>
      </trkpt>
      <trkpt lat="50.54905" lon="4.26602">
        <ele>102</ele>
        <time>2014-02-23T08:30:55Z</time>
      </trkpt>
      <trkpt lat="50.54895" lon="4.26605">
        <ele>99</ele>
        <time>2014-02-23T08:31:04Z</time>
      </trkpt>
      <trkpt lat="50.54882" lon="4.26607">
        <ele>95</ele>
        <time>2014-02-23T08:31:15Z</time>
      </trkpt>
      <trkpt lat="50.54863" lon="4.26601">
        <ele>95</ele>
        <time>2014-02-23T08:31:30Z</time>
      </trkpt>
      <trkpt lat="50.54848" lon="4.26598">
        <ele>99</ele>
        <time>2014-02-23T08:31:41Z</time>
      </trkpt>
      <trkpt lat="50.54834" lon="4.26594">
        <ele>98</ele>
        <time>2014-02-23T08:31:49Z</time>
      </trkpt>
      <trkpt lat="50.54812" lon="4.26589">
        <ele>97</ele>
        <time>2014-02-23T08:32:05Z</time>
      </trkpt>
      <trkpt lat="50.54807" lon="4.2659">
        <ele>96</ele>
        <time>2014-02-23T08:32:10Z</time>
      </trkpt>
      <trkpt lat="50.54788" lon="4.26599">
        <ele>91</ele>
        <time>2014-02-23T08:32:25Z</time>
      </trkpt>
      <trkpt lat="50.54773" lon="4.26605">
        <ele>85</ele>
        <time>2014-02-23T08:32:38Z</time>
      </trkpt>
      <trkpt lat="50.54768" lon="4.26603">
        <ele>85</ele>
        <time>2014-02-23T08:32:43Z</time>
      </trkpt>
      <trkpt lat="50.54747" lon="4.26603">
        <ele>87</ele>
        <time>2014-02-23T08:32:55Z</time>
      </trkpt>
      <trkpt lat="50.54732" lon="4.26606">
        <ele>85</ele>
        <time>2014-02-23T08:33:06Z</time>
      </trkpt>
      <trkpt lat="50.54718" lon="4.26609">
        <ele>86</ele>
        <time>2014-02-23T08:33:17Z</time>
      </trkpt>
      <trkpt lat="50.54704" lon="4.26611">
        <ele>81</ele>
        <time>2014-02-23T08:33:29Z</time>
      </trkpt>
      <trkpt lat="50.54689" lon="4.2661">
        <ele>80</ele>
        <time>2014-02-23T08:33:40Z</time>
      </trkpt>
      <trkpt lat="50.54661" lon="4.26609">
        <ele>82</ele>
        <time>2014-02-23T08:33:59Z</time>
      </trkpt>
      <trkpt lat="50.54657" lon="4.26609">
        <ele>82</ele>
        <time>2014-02-23T08:34:01Z</time>
      </trkpt>
      <trkpt lat="50.54644" lon="4.26608">
        <ele>78</ele>
        <time>2014-02-23T08:34:11Z</time>
      </trkpt>
      <trkpt lat="50.54628" lon="4.26605">
        <ele>78</ele>
        <time>2014-02-23T08:34:23Z</time>
      </trkpt>
      <trkpt lat="50.54601" lon="4.26599">
        <ele>73</ele>
        <time>2014-02-23T08:34:41Z</time>
      </trkpt>
      <trkpt lat="50.54589" lon="4.26597">
        <ele>72</ele>
        <time>2014-02-23T08:34:49Z</time>
      </trkpt>
      <trkpt lat="50.54582" lon="4.26597">
        <ele>69</ele>
        <time>2014-02-23T08:34:55Z</time>
      </trkpt>
      <trkpt lat="50.54551" lon="4.26593">
        <ele>72</ele>
        <time>2014-02-23T08:35:15Z</time>
      </trkpt>
      <trkpt lat="50.54544" lon="4.26592">
        <ele>72</ele>
        <time>2014-02-23T08:35:20Z</time>
      </trkpt>
      <trkpt lat="50.54526" lon="4.26596">
        <ele>65</ele>
        <time>2014-02-23T08:35:34Z</time>
      </trkpt>
      <trkpt lat="50.54516" lon="4.26598">
        <ele>65</ele>
        <time>2014-02-23T08:35:43Z</time>
      </trkpt>
      <trkpt lat="50.54507" lon="4.26598">
        <ele>65</ele>
        <time>2014-02-23T08:35:50Z</time>
      </trkpt>
      <trkpt lat="50.54478" lon="4.26589">
        <ele>68</ele>
        <time>2014-02-23T08:36:10Z</time>
      </trkpt>
      <trkpt lat="50.54474" lon="4.26588">
        <ele>68</ele>
        <time>2014-02-23T08:36:12Z</time>
      </trkpt>
      <trkpt lat="50.54445" lon="4.26584">
        <ele>83</ele>
        <time>2014-02-23T08:36:32Z</time>
      </trkpt>
      <trkpt lat="50.54443" lon="4.26585">
        <ele>85</ele>
        <time>2014-02-23T08:36:36Z</time>
      </trkpt>
      <trkpt lat="50.54412" lon="4.26573">
        <ele>96</ele>
        <time>2014-02-23T08:36:54Z</time>
      </trkpt>
      <trkpt lat="50.54409" lon="4.2657">
        <ele>98</ele>
        <time>2014-02-23T08:36:56Z</time>
      </trkpt>
      <trkpt lat="50.54382" lon="4.26558">
        <ele>98</ele>
        <time>2014-02-23T08:37:10Z</time>
      </trkpt>
      <trkpt lat="50.54369" lon="4.26555">
        <ele>93</ele>
        <time>2014-02-23T08:37:18Z</time>
      </trkpt>
      <trkpt lat="50.54357" lon="4.26556">
        <ele>89</ele>
        <time>2014-02-23T08:37:29Z</time>
      </trkpt>
      <trkpt lat="50.5434" lon="4.26552">
        <ele>89</ele>
        <time>2014-02-23T08:37:40Z</time>
      </trkpt>
      <trkpt lat="50.54324" lon="4.26554">
        <ele>88</ele>
        <time>2014-02-23T08:37:51Z</time>
      </trkpt>
      <trkpt lat="50.54308" lon="4.26554">
        <ele>88</ele>
        <time>2014-02-23T08:38:02Z</time>
      </trkpt>
      <trkpt lat="50.54289" lon="4.26551">
        <ele>91</ele>
        <time>2014-02-23T08:38:13Z</time>
      </trkpt>
      <trkpt lat="50.5427" lon="4.26546">
        <ele>99</ele>
        <time>2014-02-23T08:38:24Z</time>
      </trkpt>
      <trkpt lat="50.54253" lon="4.26547">
        <ele>98</ele>
        <time>2014-02-23T08:38:36Z</time>
      </trkpt>
      <trkpt lat="50.54241" lon="4.26549">
        <ele>97</ele>
        <time>2014-02-23T08:38:46Z</time>
      </trkpt>
      <trkpt lat="50.54224" lon="4.26551">
        <ele>98</ele>
        <time>2014-02-23T08:38:57Z</time>
      </trkpt>
      <trkpt lat="50.5421" lon="4.26556">
        <ele>97</ele>
        <time>2014-02-23T08:39:08Z</time>
      </trkpt>
      <trkpt lat="50.54194" lon="4.2656">
        <ele>99</ele>
        <time>2014-02-23T08:39:19Z</time>
      </trkpt>
      <trkpt lat="50.54177" lon="4.26561">
        <ele>102</ele>
        <time>2014-02-23T08:39:30Z</time>
      </trkpt>
      <trkpt lat="50.54162" lon="4.26562">
        <ele>103</ele>
        <time>2014-02-23T08:39:41Z</time>
      </trkpt>
      <trkpt lat="50.54145" lon="4.26556">
        <ele>104</ele>
        <time>2014-02-23T08:39:53Z</time>
      </trkpt>
      <trkpt lat="50.54129" lon="4.26558">
        <ele>110</ele>
        <time>2014-02-23T08:40:03Z</time>
      </trkpt>
      <trkpt lat="50.54115" lon="4.26571">
        <ele>112</ele>
        <time>2014-02-23T08:40:14Z</time>
      </trkpt>
      <trkpt lat="50.54102" lon="4.26586">
        <ele>113</ele>
        <time>2014-02-23T08:40:26Z</time>
      </trkpt>
      <trkpt lat="50.5409" lon="4.26599">
        <ele>113</ele>
        <time>2014-02-23T08:40:36Z</time>
      </trkpt>
      <trkpt lat="50.54078" lon="4.26612">
        <ele>113</ele>
        <time>2014-02-23T08:40:47Z</time>
      </trkpt>
      <trkpt lat="50.54068" lon="4.26625">
        <ele>111</ele>
        <time>2014-02-23T08:40:58Z</time>
      </trkpt>
      <trkpt lat="50.54056" lon="4.2664">
        <ele>114</ele>
        <time>2014-02-23T08:41:09Z</time>
      </trkpt>
      <trkpt lat="50.54053" lon="4.26666">
        <ele>114</ele>
        <time>2014-02-23T08:41:20Z</time>
      </trkpt>
      <trkpt lat="50.5406" lon="4.26691">
        <ele>116</ele>
        <time>2014-02-23T08:41:31Z</time>
      </trkpt>
      <trkpt lat="50.54069" lon="4.26711">
        <ele>117</ele>
        <time>2014-02-23T08:41:42Z</time>
      </trkpt>
      <trkpt lat="50.54078" lon="4.26735">
        <ele>118</ele>
        <time>2014-02-23T08:41:53Z</time>
      </trkpt>
      <trkpt lat="50.54087" lon="4.26754">
        <ele>118</ele>
        <time>2014-02-23T08:42:04Z</time>
      </trkpt>
      <trkpt lat="50.54097" lon="4.26773">
        <ele>116</ele>
        <time>2014-02-23T08:42:15Z</time>
      </trkpt>
      <trkpt lat="50.54105" lon="4.26801">
        <ele>120</ele>
        <time>2014-02-23T08:42:26Z</time>
      </trkpt>
      <trkpt lat="50.54113" lon="4.26821">
        <ele>121</ele>
        <time>2014-02-23T08:42:37Z</time>
      </trkpt>
      <trkpt lat="50.54122" lon="4.26845">
        <ele>122</ele>
        <time>2014-02-23T08:42:48Z</time>
      </trkpt>
      <trkpt lat="50.54131" lon="4.2687">
        <ele>123</ele>
        <time>2014-02-23T08:43:00Z</time>
      </trkpt>
      <trkpt lat="50.54139" lon="4.26886">
        <ele>123</ele>
        <time>2014-02-23T08:43:10Z</time>
      </trkpt>
      <trkpt lat="50.54147" lon="4.26906">
        <ele>123</ele>
        <time>2014-02-23T08:43:21Z</time>
      </trkpt>
      <trkpt lat="50.54156" lon="4.26927">
        <ele>123</ele>
        <time>2014-02-23T08:43:32Z</time>
      </trkpt>
      <trkpt lat="50.54165" lon="4.26947">
        <ele>122</ele>
        <time>2014-02-23T08:43:43Z</time>
      </trkpt>
      <trkpt lat="50.54175" lon="4.26961">
        <ele>122</ele>
        <time>2014-02-23T08:43:54Z</time>
      </trkpt>
      <trkpt lat="50.54185" lon="4.26978">
        <ele>120</ele>
        <time>2014-02-23T08:44:05Z</time>
      </trkpt>
      <trkpt lat="50.54194" lon="4.26995">
        <ele>119</ele>
        <time>2014-02-23T08:44:16Z</time>
      </trkpt>
      <trkpt lat="50.54203" lon="4.27017">
        <ele>120</ele>
        <time>2014-02-23T08:44:27Z</time>
      </trkpt>
      <trkpt lat="50.54214" lon="4.27034">
        <ele>119</ele>
        <time>2014-02-23T08:44:38Z</time>
      </trkpt>
      <trkpt lat="50.54226" lon="4.2705">
        <ele>118</ele>
        <time>2014-02-23T08:44:49Z</time>
      </trkpt>
      <trkpt lat="50.54237" lon="4.27066">
        <ele>118</ele>
        <time>2014-02-23T08:45:00Z</time>
      </trkpt>
      <trkpt lat="50.54248" lon="4.27084">
        <ele>117</ele>
        <time>2014-02-23T08:45:11Z</time>
      </trkpt>
      <trkpt lat="50.54261" lon="4.27104">
        <ele>118</ele>
        <time>2014-02-23T08:45:26Z</time>
      </trkpt>
      <trkpt lat="50.5427" lon="4.27113">
        <ele>113</ele>
        <time>2014-02-23T08:45:33Z</time>
      </trkpt>
      <trkpt lat="50.54284" lon="4.2713">
        <ele>113</ele>
        <time>2014-02-23T08:45:44Z</time>
      </trkpt>
      <trkpt lat="50.54295" lon="4.27144">
        <ele>110</ele>
        <time>2014-02-23T08:45:55Z</time>
      </trkpt>
      <trkpt lat="50.54309" lon="4.27159">
        <ele>109</ele>
        <time>2014-02-23T08:46:06Z</time>
      </trkpt>
      <trkpt lat="50.54321" lon="4.27172">
        <ele>106</ele>
        <time>2014-02-23T08:46:17Z</time>
      </trkpt>
      <trkpt lat="50.54333" lon="4.27186">
        <ele>105</ele>
        <time>2014-02-23T08:46:28Z</time>
      </trkpt>
      <trkpt lat="50.54347" lon="4.27202">
        <ele>106</ele>
        <time>2014-02-23T08:46:39Z</time>
      </trkpt>
      <trkpt lat="50.54361" lon="4.27217">
        <ele>106</ele>
        <time>2014-02-23T08:46:50Z</time>
      </trkpt>
      <trkpt lat="50.54374" lon="4.27231">
        <ele>105</ele>
        <time>2014-02-23T08:47:01Z</time>
      </trkpt>
      <trkpt lat="50.54386" lon="4.27246">
        <ele>104</ele>
        <time>2014-02-23T08:47:12Z</time>
      </trkpt>
      <trkpt lat="50.54398" lon="4.2726">
        <ele>102</ele>
        <time>2014-02-23T08:47:23Z</time>
      </trkpt>
      <trkpt lat="50.54411" lon="4.27275">
        <ele>102</ele>
        <time>2014-02-23T08:47:34Z</time>
      </trkpt>
      <trkpt lat="50.54426" lon="4.27289">
        <ele>102</ele>
        <time>2014-02-23T08:47:45Z</time>
      </trkpt>
      <trkpt lat="50.5444" lon="4.27302">
        <ele>103</ele>
        <time>2014-02-23T08:47:56Z</time>
      </trkpt>
      <trkpt lat="50.54454" lon="4.27316">
        <ele>103</ele>
        <time>2014-02-23T08:48:07Z</time>
      </trkpt>
      <trkpt lat="50.54468" lon="4.27327">
        <ele>103</ele>
        <time>2014-02-23T08:48:18Z</time>
      </trkpt>
      <trkpt lat="50.54482" lon="4.27338">
        <ele>103</ele>
        <time>2014-02-23T08:48:29Z</time>
      </trkpt>
      <trkpt lat="50.54496" lon="4.2735">
        <ele>101</ele>
        <time>2014-02-23T08:48:41Z</time>
      </trkpt>
      <trkpt lat="50.54508" lon="4.27366">
        <ele>101</ele>
        <time>2014-02-23T08:48:51Z</time>
      </trkpt>
      <trkpt lat="50.54525" lon="4.2738">
        <ele>100</ele>
        <time>2014-02-23T08:49:04Z</time>
      </trkpt>
      <trkpt lat="50.54536" lon="4.27392">
        <ele>99</ele>
        <time>2014-02-23T08:49:13Z</time>
      </trkpt>
      <trkpt lat="50.54551" lon="4.27403">
        <ele>100</ele>
        <time>2014-02-23T08:49:24Z</time>
      </trkpt>
      <trkpt lat="50.54564" lon="4.27418">
        <ele>101</ele>
        <time>2014-02-23T08:49:35Z</time>
      </trkpt>
      <trkpt lat="50.54579" lon="4.2743">
        <ele>101</ele>
        <time>2014-02-23T08:49:46Z</time>
      </trkpt>
      <trkpt lat="50.54593" lon="4.27441">
        <ele>100</ele>
        <time>2014-02-23T08:49:57Z</time>
      </trkpt>
      <trkpt lat="50.54607" lon="4.27454">
        <ele>101</ele>
        <time>2014-02-23T08:50:08Z</time>
      </trkpt>
      <trkpt lat="50.5462" lon="4.27467">
        <ele>102</ele>
        <time>2014-02-23T08:50:19Z</time>
      </trkpt>
      <trkpt lat="50.54636" lon="4.27481">
        <ele>103</ele>
        <time>2014-02-23T08:50:31Z</time>
      </trkpt>
      <trkpt lat="50.54647" lon="4.27496">
        <ele>105</ele>
        <time>2014-02-23T08:50:41Z</time>
      </trkpt>
      <trkpt lat="50.5466" lon="4.2751">
        <ele>106</ele>
        <time>2014-02-23T08:50:52Z</time>
      </trkpt>
      <trkpt lat="50.54675" lon="4.27521">
        <ele>105</ele>
        <time>2014-02-23T08:51:04Z</time>
      </trkpt>
      <trkpt lat="50.54688" lon="4.2754">
        <ele>106</ele>
        <time>2014-02-23T08:51:15Z</time>
      </trkpt>
      <trkpt lat="50.54699" lon="4.27559">
        <ele>107</ele>
        <time>2014-02-23T08:51:26Z</time>
      </trkpt>
      <trkpt lat="50.54713" lon="4.27574">
        <ele>108</ele>
        <time>2014-02-23T08:51:37Z</time>
      </trkpt>
      <trkpt lat="50.54726" lon="4.27586">
        <ele>107</ele>
        <time>2014-02-23T08:51:48Z</time>
      </trkpt>
      <trkpt lat="50.54739" lon="4.27605">
        <ele>111</ele>
        <time>2014-02-23T08:51:59Z</time>
      </trkpt>
      <trkpt lat="50.54753" lon="4.27619">
        <ele>112</ele>
        <time>2014-02-23T08:52:10Z</time>
      </trkpt>
      <trkpt lat="50.54766" lon="4.27631">
        <ele>113</ele>
        <time>2014-02-23T08:52:21Z</time>
      </trkpt>
      <trkpt lat="50.5478" lon="4.27652">
        <ele>113</ele>
        <time>2014-02-23T08:52:34Z</time>
      </trkpt>
      <trkpt lat="50.5479" lon="4.27671">
        <ele>116</ele>
        <time>2014-02-23T08:52:44Z</time>
      </trkpt>
      <trkpt lat="50.548" lon="4.27687">
        <ele>114</ele>
        <time>2014-02-23T08:52:55Z</time>
      </trkpt>
      <trkpt lat="50.54803" lon="4.27703">
        <ele>115</ele>
        <time>2014-02-23T08:53:06Z</time>
      </trkpt>
      <trkpt lat="50.548" lon="4.27719">
        <ele>112</ele>
        <time>2014-02-23T08:53:17Z</time>
      </trkpt>
      <trkpt lat="50.54792" lon="4.27737">
        <ele>108</ele>
        <time>2014-02-23T08:53:28Z</time>
      </trkpt>
      <trkpt lat="50.54784" lon="4.27756">
        <ele>107</ele>
        <time>2014-02-23T08:53:39Z</time>
      </trkpt>
      <trkpt lat="50.54775" lon="4.27775">
        <ele>105</ele>
        <time>2014-02-23T08:53:50Z</time>
      </trkpt>
      <trkpt lat="50.54767" lon="4.27798">
        <ele>105</ele>
        <time>2014-02-23T08:54:01Z</time>
      </trkpt>
      <trkpt lat="50.5476" lon="4.27818">
        <ele>103</ele>
        <time>2014-02-23T08:54:12Z</time>
      </trkpt>
      <trkpt lat="50.54751" lon="4.27841">
        <ele>103</ele>
        <time>2014-02-23T08:54:23Z</time>
      </trkpt>
      <trkpt lat="50.54745" lon="4.27864">
        <ele>102</ele>
        <time>2014-02-23T08:54:34Z</time>
      </trkpt>
      <trkpt lat="50.54737" lon="4.27895">
        <ele>104</ele>
        <time>2014-02-23T08:54:48Z</time>
      </trkpt>
      <trkpt lat="50.54733" lon="4.27912">
        <ele>104</ele>
        <time>2014-02-23T08:54:56Z</time>
      </trkpt>
      <trkpt lat="50.54726" lon="4.27937">
        <ele>107</ele>
        <time>2014-02-23T08:55:07Z</time>
      </trkpt>
      <trkpt lat="50.54718" lon="4.27965">
        <ele>108</ele>
        <time>2014-02-23T08:55:20Z</time>
      </trkpt>
      <trkpt lat="50.54713" lon="4.27983">
        <ele>107</ele>
        <time>2014-02-23T08:55:29Z</time>
      </trkpt>
      <trkpt lat="50.5471" lon="4.28006">
        <ele>106</ele>
        <time>2014-02-23T08:55:41Z</time>
      </trkpt>
      <trkpt lat="50.54705" lon="4.28029">
        <ele>106</ele>
        <time>2014-02-23T08:55:52Z</time>
      </trkpt>
      <trkpt lat="50.5471" lon="4.28047">
        <ele>105</ele>
        <time>2014-02-23T08:56:03Z</time>
      </trkpt>
      <trkpt lat="50.54723" lon="4.28052">
        <ele>102</ele>
        <time>2014-02-23T08:56:14Z</time>
      </trkpt>
      <trkpt lat="50.54739" lon="4.28064">
        <ele>102</ele>
        <time>2014-02-23T08:56:26Z</time>
      </trkpt>
      <trkpt lat="50.54749" lon="4.28073">
        <ele>103</ele>
        <time>2014-02-23T08:56:36Z</time>
      </trkpt>
      <trkpt lat="50.54759" lon="4.28089">
        <ele>99</ele>
        <time>2014-02-23T08:56:48Z</time>
      </trkpt>
      <trkpt lat="50.54767" lon="4.281">
        <ele>99</ele>
        <time>2014-02-23T08:56:58Z</time>
      </trkpt>
      <trkpt lat="50.5478" lon="4.2812">
        <ele>99</ele>
        <time>2014-02-23T08:57:10Z</time>
      </trkpt>
      <trkpt lat="50.54789" lon="4.28139">
        <ele>100</ele>
        <time>2014-02-23T08:57:21Z</time>
      </trkpt>
      <trkpt lat="50.548" lon="4.28153">
        <ele>102</ele>
        <time>2014-02-23T08:57:32Z</time>
      </trkpt>
      <trkpt lat="50.54808" lon="4.28171">
        <ele>99</ele>
        <time>2014-02-23T08:57:42Z</time>
      </trkpt>
      <trkpt lat="50.54818" lon="4.28191">
        <ele>100</ele>
        <time>2014-02-23T08:57:53Z</time>
      </trkpt>
      <trkpt lat="50.54832" lon="4.28223">
        <ele>101</ele>
        <time>2014-02-23T08:58:10Z</time>
      </trkpt>
      <trkpt lat="50.54836" lon="4.28233">
        <ele>103</ele>
        <time>2014-02-23T08:58:16Z</time>
      </trkpt>
      <trkpt lat="50.5485" lon="4.28251">
        <ele>102</ele>
        <time>2014-02-23T08:58:29Z</time>
      </trkpt>
      <trkpt lat="50.54859" lon="4.28268">
        <ele>103</ele>
        <time>2014-02-23T08:58:39Z</time>
      </trkpt>
      <trkpt lat="50.54868" lon="4.28283">
        <ele>101</ele>
        <time>2014-02-23T08:58:50Z</time>
      </trkpt>
      <trkpt lat="50.54879" lon="4.28296">
        <ele>99</ele>
        <time>2014-02-23T08:59:01Z</time>
      </trkpt>
      <trkpt lat="50.54891" lon="4.28311">
        <ele>95</ele>
        <time>2014-02-23T08:59:12Z</time>
      </trkpt>
      <trkpt lat="50.54899" lon="4.28328">
        <ele>89</ele>
        <time>2014-02-23T08:59:28Z</time>
      </trkpt>
      <trkpt lat="50.54911" lon="4.28338">
        <ele>84</ele>
        <time>2014-02-23T08:59:39Z</time>
      </trkpt>
      <trkpt lat="50.54925" lon="4.28346">
        <ele>85</ele>
        <time>2014-02-23T08:59:48Z</time>
      </trkpt>
      <trkpt lat="50.54938" lon="4.28364">
        <ele>84</ele>
        <time>2014-02-23T09:00:02Z</time>
      </trkpt>
      <trkpt lat="50.54943" lon="4.28372">
        <ele>86</ele>
        <time>2014-02-23T09:00:07Z</time>
      </trkpt>
      <trkpt lat="50.54954" lon="4.28382">
        <ele>81</ele>
        <time>2014-02-23T09:00:21Z</time>
      </trkpt>
      <trkpt lat="50.54962" lon="4.28386">
        <ele>75</ele>
        <time>2014-02-23T09:00:29Z</time>
      </trkpt>
      <trkpt lat="50.54982" lon="4.28396">
        <ele>67</ele>
        <time>2014-02-23T09:00:48Z</time>
      </trkpt>
      <trkpt lat="50.54988" lon="4.28399">
        <ele>67</ele>
        <time>2014-02-23T09:00:52Z</time>
      </trkpt>
      <trkpt lat="50.55003" lon="4.28404">
        <ele>65</ele>
        <time>2014-02-23T09:01:02Z</time>
      </trkpt>
      <trkpt lat="50.55023" lon="4.28423">
        <ele>69</ele>
        <time>2014-02-23T09:01:19Z</time>
      </trkpt>
      <trkpt lat="50.55041" lon="4.28438">
        <ele>67</ele>
        <time>2014-02-23T09:01:34Z</time>
      </trkpt>
      <trkpt lat="50.55051" lon="4.2844">
        <ele>66</ele>
        <time>2014-02-23T09:01:41Z</time>
      </trkpt>
      <trkpt lat="50.55056" lon="4.28446">
        <ele>68</ele>
        <time>2014-02-23T09:01:46Z</time>
      </trkpt>
      <trkpt lat="50.55072" lon="4.28457">
        <ele>68</ele>
        <time>2014-02-23T09:02:00Z</time>
      </trkpt>
      <trkpt lat="50.55082" lon="4.28464">
        <ele>68</ele>
        <time>2014-02-23T09:02:08Z</time>
      </trkpt>
      <trkpt lat="50.55097" lon="4.28473">
        <ele>67</ele>
        <time>2014-02-23T09:02:21Z</time>
      </trkpt>
      <trkpt lat="50.55109" lon="4.28479">
        <ele>68</ele>
        <time>2014-02-23T09:02:31Z</time>
      </trkpt>
      <trkpt lat="50.55132" lon="4.28496">
        <ele>67</ele>
        <time>2014-02-23T09:02:48Z</time>
      </trkpt>
      <trkpt lat="50.55144" lon="4.28504">
        <ele>66</ele>
        <time>2014-02-23T09:02:59Z</time>
      </trkpt>
      <trkpt lat="50.55154" lon="4.28505">
        <ele>66</ele>
        <time>2014-02-23T09:03:05Z</time>
      </trkpt>
      <trkpt lat="50.55165" lon="4.2851">
        <ele>64</ele>
        <time>2014-02-23T09:03:15Z</time>
      </trkpt>
      <trkpt lat="50.55196" lon="4.2852">
        <ele>69</ele>
        <time>2014-02-23T09:03:34Z</time>
      </trkpt>
      <trkpt lat="50.55199" lon="4.28521">
        <ele>68</ele>
        <time>2014-02-23T09:03:36Z</time>
      </trkpt>
      <trkpt lat="50.55215" lon="4.28521">
        <ele>72</ele>
        <time>2014-02-23T09:03:47Z</time>
      </trkpt>
      <trkpt lat="50.55247" lon="4.28518">
        <ele>85</ele>
        <time>2014-02-23T09:04:08Z</time>
      </trkpt>
      <trkpt lat="50.55259" lon="4.28517">
        <ele>88</ele>
        <time>2014-02-23T09:04:14Z</time>
      </trkpt>
      <trkpt lat="50.55271" lon="4.28506">
        <ele>87</ele>
        <time>2014-02-23T09:04:28Z</time>
      </trkpt>
      <trkpt lat="50.55274" lon="4.28503">
        <ele>86</ele>
        <time>2014-02-23T09:04:31Z</time>
      </trkpt>
      <trkpt lat="50.55293" lon="4.28491">
        <ele>87</ele>
        <time>2014-02-23T09:04:45Z</time>
      </trkpt>
      <trkpt lat="50.5531" lon="4.28488">
        <ele>78</ele>
        <time>2014-02-23T09:04:58Z</time>
      </trkpt>
      <trkpt lat="50.55317" lon="4.28485">
        <ele>76</ele>
        <time>2014-02-23T09:05:04Z</time>
      </trkpt>
      <trkpt lat="50.55333" lon="4.28472">
        <ele>77</ele>
        <time>2014-02-23T09:05:16Z</time>
      </trkpt>
      <trkpt lat="50.55358" lon="4.28452">
        <ele>81</ele>
        <time>2014-02-23T09:05:33Z</time>
      </trkpt>
      <trkpt lat="50.55367" lon="4.28449">
        <ele>80</ele>
        <time>2014-02-23T09:05:37Z</time>
      </trkpt>
      <trkpt lat="50.55378" lon="4.2844">
        <ele>82</ele>
        <time>2014-02-23T09:05:49Z</time>
      </trkpt>
      <trkpt lat="50.55388" lon="4.28431">
        <ele>82</ele>
        <time>2014-02-23T09:05:59Z</time>
      </trkpt>
      <trkpt lat="50.55399" lon="4.28421">
        <ele>76</ele>
        <time>2014-02-23T09:06:11Z</time>
      </trkpt>
      <trkpt lat="50.55409" lon="4.28413">
        <ele>69</ele>
        <time>2014-02-23T09:06:22Z</time>
      </trkpt>
      <trkpt lat="50.5542" lon="4.2841">
        <ele>71</ele>
        <time>2014-02-23T09:06:32Z</time>
      </trkpt>
      <trkpt lat="50.55454" lon="4.284">
        <ele>70</ele>
        <time>2014-02-23T09:06:52Z</time>
      </trkpt>
      <trkpt lat="50.55457" lon="4.284">
        <ele>71</ele>
        <time>2014-02-23T09:06:54Z</time>
      </trkpt>
      <trkpt lat="50.55474" lon="4.28398">
        <ele>70</ele>
        <time>2014-02-23T09:07:05Z</time>
      </trkpt>
      <trkpt lat="50.5549" lon="4.28402">
        <ele>69</ele>
        <time>2014-02-23T09:07:19Z</time>
      </trkpt>
      <trkpt lat="50.5551" lon="4.28406">
        <ele>69</ele>
        <time>2014-02-23T09:07:31Z</time>
      </trkpt>
      <trkpt lat="50.55544" lon="4.28413">
        <ele>69</ele>
        <time>2014-02-23T09:07:48Z</time>
      </trkpt>
      <trkpt lat="50.55554" lon="4.28412">
        <ele>69</ele>
        <time>2014-02-23T09:07:53Z</time>
      </trkpt>
      <trkpt lat="50.55576" lon="4.2842">
        <ele>72</ele>
        <time>2014-02-23T09:08:08Z</time>
      </trkpt>
      <trkpt lat="50.55588" lon="4.28423">
        <ele>72</ele>
        <time>2014-02-23T09:08:20Z</time>
      </trkpt>
      <trkpt lat="50.55606" lon="4.28431">
        <ele>75</ele>
        <time>2014-02-23T09:08:31Z</time>
      </trkpt>
      <trkpt lat="50.55609" lon="4.28434">
        <ele>75</ele>
        <time>2014-02-23T09:08:35Z</time>
      </trkpt>
      <trkpt lat="50.55624" lon="4.28443">
        <ele>74</ele>
        <time>2014-02-23T09:08:46Z</time>
      </trkpt>
      <trkpt lat="50.55637" lon="4.28449">
        <ele>70</ele>
        <time>2014-02-23T09:08:57Z</time>
      </trkpt>
      <trkpt lat="50.55661" lon="4.2846">
        <ele>71</ele>
        <time>2014-02-23T09:09:16Z</time>
      </trkpt>
      <trkpt lat="50.55664" lon="4.28461">
        <ele>72</ele>
        <time>2014-02-23T09:09:20Z</time>
      </trkpt>
      <trkpt lat="50.55695" lon="4.28471">
        <ele>75</ele>
        <time>2014-02-23T09:09:37Z</time>
      </trkpt>
      <trkpt lat="50.55711" lon="4.28475">
        <ele>76</ele>
        <time>2014-02-23T09:09:50Z</time>
      </trkpt>
      <trkpt lat="50.5572" lon="4.28479">
        <ele>75</ele>
        <time>2014-02-23T09:10:00Z</time>
      </trkpt>
      <trkpt lat="50.55723" lon="4.28478">
        <ele>76</ele>
        <time>2014-02-23T09:10:06Z</time>
      </trkpt>
      <trkpt lat="50.55744" lon="4.28482">
        <ele>73</ele>
        <time>2014-02-23T09:10:21Z</time>
      </trkpt>
      <trkpt lat="50.55755" lon="4.28484">
        <ele>72</ele>
        <time>2014-02-23T09:10:32Z</time>
      </trkpt>
      <trkpt lat="50.55759" lon="4.28483">
        <ele>67</ele>
        <time>2014-02-23T09:10:38Z</time>
      </trkpt>
      <trkpt lat="50.55775" lon="4.28481">
        <ele>64</ele>
        <time>2014-02-23T09:10:50Z</time>
      </trkpt>
      <trkpt lat="50.55807" lon="4.28476">
        <ele>60</ele>
        <time>2014-02-23T09:11:08Z</time>
      </trkpt>
      <trkpt lat="50.55825" lon="4.28469">
        <ele>62</ele>
        <time>2014-02-23T09:11:22Z</time>
      </trkpt>
      <trkpt lat="50.5583" lon="4.28465">
        <ele>65</ele>
        <time>2014-02-23T09:11:27Z</time>
      </trkpt>
      <trkpt lat="50.55842" lon="4.28459">
        <ele>67</ele>
        <time>2014-02-23T09:11:34Z</time>
      </trkpt>
      <trkpt lat="50.55901" lon="4.28442">
        <ele>74</ele>
        <time>2014-02-23T09:11:55Z</time>
      </trkpt>
      <trkpt lat="50.55931" lon="4.28447">
        <ele>88</ele>
        <time>2014-02-23T09:12:06Z</time>
      </trkpt>
      <trkpt lat="50.55941" lon="4.28447">
        <ele>90</ele>
        <time>2014-02-23T09:12:10Z</time>
      </trkpt>
      <trkpt lat="50.55947" lon="4.28446">
        <ele>90</ele>
        <time>2014-02-23T09:12:20Z</time>
      </trkpt>
      <trkpt lat="50.55968" lon="4.28435">
        <ele>83</ele>
        <time>2014-02-23T09:12:37Z</time>
      </trkpt>
      <trkpt lat="50.55978" lon="4.28431">
        <ele>84</ele>
        <time>2014-02-23T09:12:43Z</time>
      </trkpt>
      <trkpt lat="50.55996" lon="4.28423">
        <ele>82</ele>
        <time>2014-02-23T09:12:59Z</time>
      </trkpt>
      <trkpt lat="50.56005" lon="4.28419">
        <ele>80</ele>
        <time>2014-02-23T09:13:05Z</time>
      </trkpt>
      <trkpt lat="50.56018" lon="4.28413">
        <ele>79</ele>
        <time>2014-02-23T09:13:16Z</time>
      </trkpt>
      <trkpt lat="50.56027" lon="4.28412">
        <ele>78</ele>
        <time>2014-02-23T09:13:27Z</time>
      </trkpt>
      <trkpt lat="50.5606" lon="4.28401">
        <ele>80</ele>
        <time>2014-02-23T09:13:45Z</time>
      </trkpt>
      <trkpt lat="50.5607" lon="4.28396">
        <ele>79</ele>
        <time>2014-02-23T09:13:50Z</time>
      </trkpt>
      <trkpt lat="50.5609" lon="4.2839">
        <ele>79</ele>
        <time>2014-02-23T09:14:07Z</time>
      </trkpt>
      <trkpt lat="50.56096" lon="4.2839">
        <ele>82</ele>
        <time>2014-02-23T09:14:14Z</time>
      </trkpt>
      <trkpt lat="50.561" lon="4.28387">
        <ele>84</ele>
        <time>2014-02-23T09:14:24Z</time>
      </trkpt>
      <trkpt lat="50.56129" lon="4.28379">
        <ele>87</ele>
        <time>2014-02-23T09:14:44Z</time>
      </trkpt>
      <trkpt lat="50.5613" lon="4.28378">
        <ele>86</ele>
        <time>2014-02-23T09:14:46Z</time>
      </trkpt>
      <trkpt lat="50.5615" lon="4.28371">
        <ele>86</ele>
        <time>2014-02-23T09:15:04Z</time>
      </trkpt>
      <trkpt lat="50.56177" lon="4.2836">
        <ele>91</ele>
        <time>2014-02-23T09:15:18Z</time>
      </trkpt>
      <trkpt lat="50.56182" lon="4.28357">
        <ele>95</ele>
        <time>2014-02-23T09:15:23Z</time>
      </trkpt>
      <trkpt lat="50.56193" lon="4.28353">
        <ele>95</ele>
        <time>2014-02-23T09:15:30Z</time>
      </trkpt>
      <trkpt lat="50.56205" lon="4.28352">
        <ele>92</ele>
        <time>2014-02-23T09:15:43Z</time>
      </trkpt>
      <trkpt lat="50.56231" lon="4.28338">
        <ele>100</ele>
        <time>2014-02-23T09:16:02Z</time>
      </trkpt>
      <trkpt lat="50.56232" lon="4.28336">
        <ele>102</ele>
        <time>2014-02-23T09:16:03Z</time>
      </trkpt>
      <trkpt lat="50.5625" lon="4.28333">
        <ele>97</ele>
        <time>2014-02-23T09:16:16Z</time>
      </trkpt>
      <trkpt lat="50.56265" lon="4.2833">
        <ele>99</ele>
        <time>2014-02-23T09:16:25Z</time>
      </trkpt>
      <trkpt lat="50.56278" lon="4.28323">
        <ele>98</ele>
        <time>2014-02-23T09:16:36Z</time>
      </trkpt>
      <trkpt lat="50.56287" lon="4.28317">
        <ele>99</ele>
        <time>2014-02-23T09:16:47Z</time>
      </trkpt>
      <trkpt lat="50.56308" lon="4.28303">
        <ele>88</ele>
        <time>2014-02-23T09:17:07Z</time>
      </trkpt>
      <trkpt lat="50.56311" lon="4.28301">
        <ele>87</ele>
        <time>2014-02-23T09:17:09Z</time>
      </trkpt>
      <trkpt lat="50.56336" lon="4.28287">
        <ele>94</ele>
        <time>2014-02-23T09:17:23Z</time>
      </trkpt>
      <trkpt lat="50.56358" lon="4.28275">
        <ele>95</ele>
        <time>2014-02-23T09:17:35Z</time>
      </trkpt>
      <trkpt lat="50.56362" lon="4.28257">
        <ele>90</ele>
        <time>2014-02-23T09:17:44Z</time>
      </trkpt>
      <trkpt lat="50.5637" lon="4.28243">
        <ele>91</ele>
        <time>2014-02-23T09:17:53Z</time>
      </trkpt>
      <trkpt lat="50.56386" lon="4.28232">
        <ele>89</ele>
        <time>2014-02-23T09:18:04Z</time>
      </trkpt>
      <trkpt lat="50.56402" lon="4.28223">
        <ele>88</ele>
        <time>2014-02-23T09:18:16Z</time>
      </trkpt>
      <trkpt lat="50.56415" lon="4.28219">
        <ele>88</ele>
        <time>2014-02-23T09:18:27Z</time>
      </trkpt>
      <trkpt lat="50.56433" lon="4.28213">
        <ele>92</ele>
        <time>2014-02-23T09:18:39Z</time>
      </trkpt>
      <trkpt lat="50.56451" lon="4.28189">
        <ele>96</ele>
        <time>2014-02-23T09:18:55Z</time>
      </trkpt>
      <trkpt lat="50.56456" lon="4.28179">
        <ele>96</ele>
        <time>2014-02-23T09:19:00Z</time>
      </trkpt>
      <trkpt lat="50.56464" lon="4.28157">
        <ele>100</ele>
        <time>2014-02-23T09:19:11Z</time>
      </trkpt>
      <trkpt lat="50.56467" lon="4.28142">
        <ele>98</ele>
        <time>2014-02-23T09:19:22Z</time>
      </trkpt>
      <trkpt lat="50.56485" lon="4.28091">
        <ele>103</ele>
        <time>2014-02-23T09:19:43Z</time>
      </trkpt>
      <trkpt lat="50.56488" lon="4.28072">
        <ele>104</ele>
        <time>2014-02-23T09:19:49Z</time>
      </trkpt>
      <trkpt lat="50.56491" lon="4.28059">
        <ele>104</ele>
        <time>2014-02-23T09:19:55Z</time>
      </trkpt>
      <trkpt lat="50.56496" lon="4.2803">
        <ele>107</ele>
        <time>2014-02-23T09:20:08Z</time>
      </trkpt>
      <trkpt lat="50.56498" lon="4.28007">
        <ele>107</ele>
        <time>2014-02-23T09:20:17Z</time>
      </trkpt>
      <trkpt lat="50.56504" lon="4.27982">
        <ele>109</ele>
        <time>2014-02-23T09:20:28Z</time>
      </trkpt>
      <trkpt lat="50.56506" lon="4.27957">
        <ele>108</ele>
        <time>2014-02-23T09:20:39Z</time>
      </trkpt>
      <trkpt lat="50.5651" lon="4.27932">
        <ele>108</ele>
        <time>2014-02-23T09:20:50Z</time>
      </trkpt>
      <trkpt lat="50.56513" lon="4.27909">
        <ele>106</ele>
        <time>2014-02-23T09:21:01Z</time>
      </trkpt>
      <trkpt lat="50.56516" lon="4.27884">
        <ele>102</ele>
        <time>2014-02-23T09:21:12Z</time>
      </trkpt>
      <trkpt lat="50.56515" lon="4.27862">
        <ele>100</ele>
        <time>2014-02-23T09:21:23Z</time>
      </trkpt>
      <trkpt lat="50.56515" lon="4.27839">
        <ele>99</ele>
        <time>2014-02-23T09:21:34Z</time>
      </trkpt>
      <trkpt lat="50.56513" lon="4.27823">
        <ele>93</ele>
        <time>2014-02-23T09:21:45Z</time>
      </trkpt>
      <trkpt lat="50.56512" lon="4.27802">
        <ele>89</ele>
        <time>2014-02-23T09:21:56Z</time>
      </trkpt>
      <trkpt lat="50.56513" lon="4.27783">
        <ele>81</ele>
        <time>2014-02-23T09:22:07Z</time>
      </trkpt>
      <trkpt lat="50.56508" lon="4.27728">
        <ele>89</ele>
        <time>2014-02-23T09:22:27Z</time>
      </trkpt>
      <trkpt lat="50.56507" lon="4.27696">
        <ele>88</ele>
        <time>2014-02-23T09:22:39Z</time>
      </trkpt>
      <trkpt lat="50.56507" lon="4.27682">
        <ele>84</ele>
        <time>2014-02-23T09:22:45Z</time>
      </trkpt>
      <trkpt lat="50.56509" lon="4.27668">
        <ele>83</ele>
        <time>2014-02-23T09:22:52Z</time>
      </trkpt>
      <trkpt lat="50.56517" lon="4.27644">
        <ele>79</ele>
        <time>2014-02-23T09:23:06Z</time>
      </trkpt>
      <trkpt lat="50.56529" lon="4.27631">
        <ele>83</ele>
        <time>2014-02-23T09:23:14Z</time>
      </trkpt>
      <trkpt lat="50.56562" lon="4.27603">
        <ele>83</ele>
        <time>2014-02-23T09:23:34Z</time>
      </trkpt>
      <trkpt lat="50.56578" lon="4.2759">
        <ele>85</ele>
        <time>2014-02-23T09:23:44Z</time>
      </trkpt>
      <trkpt lat="50.5659" lon="4.2757">
        <ele>86</ele>
        <time>2014-02-23T09:23:57Z</time>
      </trkpt>
      <trkpt lat="50.56593" lon="4.27569">
        <ele>87</ele>
        <time>2014-02-23T09:23:58Z</time>
      </trkpt>
      <trkpt lat="50.56614" lon="4.27557">
        <ele>96</ele>
        <time>2014-02-23T09:24:11Z</time>
      </trkpt>
      <trkpt lat="50.56628" lon="4.27545">
        <ele>97</ele>
        <time>2014-02-23T09:24:21Z</time>
      </trkpt>
      <trkpt lat="50.5664" lon="4.27529">
        <ele>102</ele>
        <time>2014-02-23T09:24:32Z</time>
      </trkpt>
      <trkpt lat="50.56652" lon="4.27511">
        <ele>107</ele>
        <time>2014-02-23T09:24:44Z</time>
      </trkpt>
      <trkpt lat="50.56664" lon="4.27488">
        <ele>109</ele>
        <time>2014-02-23T09:24:55Z</time>
      </trkpt>
      <trkpt lat="50.56672" lon="4.27464">
        <ele>109</ele>
        <time>2014-02-23T09:25:07Z</time>
      </trkpt>
      <trkpt lat="50.56683" lon="4.27431">
        <ele>109</ele>
        <time>2014-02-23T09:25:24Z</time>
      </trkpt>
      <trkpt lat="50.56685" lon="4.27421">
        <ele>109</ele>
        <time>2014-02-23T09:25:28Z</time>
      </trkpt>
      <trkpt lat="50.56689" lon="4.27397">
        <ele>107</ele>
        <time>2014-02-23T09:25:39Z</time>
      </trkpt>
      <trkpt lat="50.56689" lon="4.27369">
        <ele>105</ele>
        <time>2014-02-23T09:25:51Z</time>
      </trkpt>
      <trkpt lat="50.56689" lon="4.27346">
        <ele>104</ele>
        <time>2014-02-23T09:26:02Z</time>
      </trkpt>
      <trkpt lat="50.56688" lon="4.27323">
        <ele>103</ele>
        <time>2014-02-23T09:26:12Z</time>
      </trkpt>
      <trkpt lat="50.56685" lon="4.27299">
        <ele>99</ele>
        <time>2014-02-23T09:26:23Z</time>
      </trkpt>
      <trkpt lat="50.56684" lon="4.27275">
        <ele>99</ele>
        <time>2014-02-23T09:26:34Z</time>
      </trkpt>
      <trkpt lat="50.56684" lon="4.27249">
        <ele>101</ele>
        <time>2014-02-23T09:26:45Z</time>
      </trkpt>
      <trkpt lat="50.56685" lon="4.27226">
        <ele>104</ele>
        <time>2014-02-23T09:26:56Z</time>
      </trkpt>
      <trkpt lat="50.56685" lon="4.27197">
        <ele>104</ele>
        <time>2014-02-23T09:27:08Z</time>
      </trkpt>
      <trkpt lat="50.56678" lon="4.27179">
        <ele>100</ele>
        <time>2014-02-23T09:27:18Z</time>
      </trkpt>
      <trkpt lat="50.56685" lon="4.27154">
        <ele>104</ele>
        <time>2014-02-23T09:27:29Z</time>
      </trkpt>
      <trkpt lat="50.5669" lon="4.27115">
        <ele>106</ele>
        <time>2014-02-23T09:27:45Z</time>
      </trkpt>
      <trkpt lat="50.56691" lon="4.271">
        <ele>106</ele>
        <time>2014-02-23T09:27:51Z</time>
      </trkpt>
      <trkpt lat="50.56694" lon="4.27076">
        <ele>107</ele>
        <time>2014-02-23T09:28:02Z</time>
      </trkpt>
      <trkpt lat="50.56704" lon="4.27035">
        <ele>102</ele>
        <time>2014-02-23T09:28:21Z</time>
      </trkpt>
      <trkpt lat="50.56704" lon="4.27027">
        <ele>100</ele>
        <time>2014-02-23T09:28:24Z</time>
      </trkpt>
      <trkpt lat="50.56701" lon="4.27007">
        <ele>92</ele>
        <time>2014-02-23T09:28:38Z</time>
      </trkpt>
      <trkpt lat="50.56703" lon="4.26987">
        <ele>89</ele>
        <time>2014-02-23T09:28:48Z</time>
      </trkpt>
      <trkpt lat="50.56705" lon="4.26952">
        <ele>93</ele>
        <time>2014-02-23T09:29:05Z</time>
      </trkpt>
      <trkpt lat="50.56705" lon="4.26945">
        <ele>94</ele>
        <time>2014-02-23T09:29:08Z</time>
      </trkpt>
      <trkpt lat="50.56707" lon="4.2692">
        <ele>102</ele>
        <time>2014-02-23T09:29:19Z</time>
      </trkpt>
      <trkpt lat="50.56708" lon="4.26896">
        <ele>105</ele>
        <time>2014-02-23T09:29:31Z</time>
      </trkpt>
      <trkpt lat="50.56709" lon="4.26868">
        <ele>108</ele>
        <time>2014-02-23T09:29:46Z</time>
      </trkpt>
      <trkpt lat="50.5671" lon="4.26857">
        <ele>107</ele>
        <time>2014-02-23T09:29:52Z</time>
      </trkpt>
      <trkpt lat="50.56711" lon="4.26835">
        <ele>108</ele>
        <time>2014-02-23T09:30:03Z</time>
      </trkpt>
      <trkpt lat="50.56712" lon="4.2681">
        <ele>112</ele>
        <time>2014-02-23T09:30:14Z</time>
      </trkpt>
      <trkpt lat="50.56711" lon="4.26752">
        <ele>115</ele>
        <time>2014-02-23T09:30:35Z</time>
      </trkpt>
      <trkpt lat="50.5671" lon="4.26735">
        <ele>111</ele>
        <time>2014-02-23T09:30:45Z</time>
      </trkpt>
      <trkpt lat="50.5671" lon="4.26731">
        <ele>111</ele>
        <time>2014-02-23T09:30:47Z</time>
      </trkpt>
      <trkpt lat="50.567" lon="4.26711">
        <ele>82</ele>
        <time>2014-02-23T09:31:04Z</time>
      </trkpt>
      <trkpt lat="50.56681" lon="4.26696">
        <ele>84</ele>
        <time>2014-02-23T09:31:19Z</time>
      </trkpt>
      <trkpt lat="50.5667" lon="4.26692">
        <ele>85</ele>
        <time>2014-02-23T09:31:29Z</time>
      </trkpt>
      <trkpt lat="50.5667" lon="4.26695">
        <ele>84</ele>
        <time>2014-02-23T09:31:32Z</time>
      </trkpt>
      <trkpt lat="50.56657" lon="4.26701">
        <ele>88</ele>
        <time>2014-02-23T09:31:42Z</time>
      </trkpt>
      <trkpt lat="50.56643" lon="4.26711">
        <ele>84</ele>
        <time>2014-02-23T09:31:53Z</time>
      </trkpt>
      <trkpt lat="50.56639" lon="4.26709">
        <ele>83</ele>
        <time>2014-02-23T09:32:04Z</time>
      </trkpt>
      <trkpt lat="50.5663" lon="4.26702">
        <ele>83</ele>
        <time>2014-02-23T09:32:15Z</time>
      </trkpt>
      <trkpt lat="50.56603" lon="4.26683">
        <ele>79</ele>
        <time>2014-02-23T09:32:34Z</time>
      </trkpt>
      <trkpt lat="50.56597" lon="4.2668">
        <ele>80</ele>
        <time>2014-02-23T09:32:38Z</time>
      </trkpt>
      <trkpt lat="50.56578" lon="4.26671">
        <ele>76</ele>
        <time>2014-02-23T09:32:51Z</time>
      </trkpt>
      <trkpt lat="50.5657" lon="4.26665">
        <ele>78</ele>
        <time>2014-02-23T09:32:59Z</time>
      </trkpt>
      <trkpt lat="50.56556" lon="4.26649">
        <ele>83</ele>
        <time>2014-02-23T09:33:10Z</time>
      </trkpt>
      <trkpt lat="50.56547" lon="4.26632">
        <ele>90</ele>
        <time>2014-02-23T09:33:21Z</time>
      </trkpt>
      <trkpt lat="50.56551" lon="4.26601">
        <ele>95</ele>
        <time>2014-02-23T09:33:33Z</time>
      </trkpt>
      <trkpt lat="50.56556" lon="4.2658">
        <ele>96</ele>
        <time>2014-02-23T09:33:43Z</time>
      </trkpt>
      <trkpt lat="50.56559" lon="4.26557">
        <ele>97</ele>
        <time>2014-02-23T09:33:54Z</time>
      </trkpt>
      <trkpt lat="50.56564" lon="4.26532">
        <ele>100</ele>
        <time>2014-02-23T09:34:06Z</time>
      </trkpt>
      <trkpt lat="50.56569" lon="4.26513">
        <ele>99</ele>
        <time>2014-02-23T09:34:16Z</time>
      </trkpt>
      <trkpt lat="50.56574" lon="4.26491">
        <ele>99</ele>
        <time>2014-02-23T09:34:27Z</time>
      </trkpt>
      <trkpt lat="50.56578" lon="4.26467">
        <ele>97</ele>
        <time>2014-02-23T09:34:38Z</time>
      </trkpt>
      <trkpt lat="50.56583" lon="4.26452">
        <ele>88</ele>
        <time>2014-02-23T09:34:49Z</time>
      </trkpt>
      <trkpt lat="50.56587" lon="4.26437">
        <ele>81</ele>
        <time>2014-02-23T09:35:00Z</time>
      </trkpt>
      <trkpt lat="50.56587" lon="4.26407">
        <ele>82</ele>
        <time>2014-02-23T09:35:12Z</time>
      </trkpt>
      <trkpt lat="50.56585" lon="4.26382">
        <ele>83</ele>
        <time>2014-02-23T09:35:22Z</time>
      </trkpt>
      <trkpt lat="50.56584" lon="4.26361">
        <ele>79</ele>
        <time>2014-02-23T09:35:33Z</time>
      </trkpt>
      <trkpt lat="50.5658" lon="4.26334">
        <ele>81</ele>
        <time>2014-02-23T09:35:44Z</time>
      </trkpt>
      <trkpt lat="50.56577" lon="4.26309">
        <ele>80</ele>
        <time>2014-02-23T09:35:56Z</time>
      </trkpt>
      <trkpt lat="50.56574" lon="4.26285">
        <ele>80</ele>
        <time>2014-02-23T09:36:07Z</time>
      </trkpt>
      <trkpt lat="50.56571" lon="4.26255">
        <ele>85</ele>
        <time>2014-02-23T09:36:17Z</time>
      </trkpt>
      <trkpt lat="50.56568" lon="4.26228">
        <ele>87</ele>
        <time>2014-02-23T09:36:28Z</time>
      </trkpt>
      <trkpt lat="50.56564" lon="4.26204">
        <ele>86</ele>
        <time>2014-02-23T09:36:39Z</time>
      </trkpt>
      <trkpt lat="50.56561" lon="4.2618">
        <ele>90</ele>
        <time>2014-02-23T09:36:50Z</time>
      </trkpt>
      <trkpt lat="50.56557" lon="4.26153">
        <ele>90</ele>
        <time>2014-02-23T09:37:02Z</time>
      </trkpt>
      <trkpt lat="50.56553" lon="4.2613">
        <ele>88</ele>
        <time>2014-02-23T09:37:13Z</time>
      </trkpt>
      <trkpt lat="50.56549" lon="4.26107">
        <ele>87</ele>
        <time>2014-02-23T09:37:26Z</time>
      </trkpt>
      <trkpt lat="50.56546" lon="4.26085">
        <ele>83</ele>
        <time>2014-02-23T09:37:36Z</time>
      </trkpt>
      <trkpt lat="50.56544" lon="4.26065">
        <ele>77</ele>
        <time>2014-02-23T09:37:47Z</time>
      </trkpt>
      <trkpt lat="50.56542" lon="4.26041">
        <ele>73</ele>
        <time>2014-02-23T09:38:00Z</time>
      </trkpt>
      <trkpt lat="50.56541" lon="4.26021">
        <ele>74</ele>
        <time>2014-02-23T09:38:10Z</time>
      </trkpt>
      <trkpt lat="50.56544" lon="4.26004">
        <ele>70</ele>
        <time>2014-02-23T09:38:21Z</time>
      </trkpt>
      <trkpt lat="50.56551" lon="4.25986">
        <ele>68</ele>
        <time>2014-02-23T09:38:31Z</time>
      </trkpt>
      <trkpt lat="50.56559" lon="4.25968">
        <ele>64</ele>
        <time>2014-02-23T09:38:42Z</time>
      </trkpt>
      <trkpt lat="50.56565" lon="4.25937">
        <ele>70</ele>
        <time>2014-02-23T09:38:54Z</time>
      </trkpt>
      <trkpt lat="50.56575" lon="4.25879">
        <ele>81</ele>
        <time>2014-02-23T09:39:14Z</time>
      </trkpt>
      <trkpt lat="50.56576" lon="4.25867">
        <ele>83</ele>
        <time>2014-02-23T09:39:17Z</time>
      </trkpt>
      <trkpt lat="50.56582" lon="4.25846">
        <ele>81</ele>
        <time>2014-02-23T09:39:27Z</time>
      </trkpt>
      <trkpt lat="50.56583" lon="4.25827">
        <ele>81</ele>
        <time>2014-02-23T09:39:39Z</time>
      </trkpt>
      <trkpt lat="50.56577" lon="4.25804">
        <ele>83</ele>
        <time>2014-02-23T09:39:50Z</time>
      </trkpt>
      <trkpt lat="50.56572" lon="4.258">
        <ele>79</ele>
        <time>2014-02-23T09:40:01Z</time>
      </trkpt>
      <trkpt lat="50.56563" lon="4.25795">
        <ele>74</ele>
        <time>2014-02-23T09:40:12Z</time>
      </trkpt>
      <trkpt lat="50.5655" lon="4.25786">
        <ele>78</ele>
        <time>2014-02-23T09:40:23Z</time>
      </trkpt>
      <trkpt lat="50.5654" lon="4.25767">
        <ele>81</ele>
        <time>2014-02-23T09:40:34Z</time>
      </trkpt>
      <trkpt lat="50.56526" lon="4.25758">
        <ele>73</ele>
        <time>2014-02-23T09:40:47Z</time>
      </trkpt>
      <trkpt lat="50.56518" lon="4.25747">
        <ele>74</ele>
        <time>2014-02-23T09:40:56Z</time>
      </trkpt>
      <trkpt lat="50.56509" lon="4.25734">
        <ele>77</ele>
        <time>2014-02-23T09:41:07Z</time>
      </trkpt>
      <trkpt lat="50.56502" lon="4.2572">
        <ele>74</ele>
        <time>2014-02-23T09:41:18Z</time>
      </trkpt>
      <trkpt lat="50.56512" lon="4.25707">
        <ele>75</ele>
        <time>2014-02-23T09:41:29Z</time>
      </trkpt>
      <trkpt lat="50.56518" lon="4.25694">
        <ele>76</ele>
        <time>2014-02-23T09:41:42Z</time>
      </trkpt>
      <trkpt lat="50.56523" lon="4.2568">
        <ele>80</ele>
        <time>2014-02-23T09:41:51Z</time>
      </trkpt>
      <trkpt lat="50.56527" lon="4.25666">
        <ele>87</ele>
        <time>2014-02-23T09:42:04Z</time>
      </trkpt>
      <trkpt lat="50.56531" lon="4.25626">
        <ele>94</ele>
        <time>2014-02-23T09:42:17Z</time>
      </trkpt>
      <trkpt lat="50.5653" lon="4.25603">
        <ele>87</ele>
        <time>2014-02-23T09:42:27Z</time>
      </trkpt>
      <trkpt lat="50.56529" lon="4.25586">
        <ele>88</ele>
        <time>2014-02-23T09:42:35Z</time>
      </trkpt>
      <trkpt lat="50.56528" lon="4.25567">
        <ele>83</ele>
        <time>2014-02-23T09:42:46Z</time>
      </trkpt>
      <trkpt lat="50.56534" lon="4.25556">
        <ele>89</ele>
        <time>2014-02-23T09:42:57Z</time>
      </trkpt>
      <trkpt lat="50.56544" lon="4.2554">
        <ele>97</ele>
        <time>2014-02-23T09:43:08Z</time>
      </trkpt>
      <trkpt lat="50.56561" lon="4.25516">
        <ele>101</ele>
        <time>2014-02-23T09:43:25Z</time>
      </trkpt>
      <trkpt lat="50.56568" lon="4.2551">
        <ele>101</ele>
        <time>2014-02-23T09:43:30Z</time>
      </trkpt>
      <trkpt lat="50.56579" lon="4.25498">
        <ele>105</ele>
        <time>2014-02-23T09:43:41Z</time>
      </trkpt>
      <trkpt lat="50.56594" lon="4.2549">
        <ele>102</ele>
        <time>2014-02-23T09:43:52Z</time>
      </trkpt>
      <trkpt lat="50.56598" lon="4.25485">
        <ele>101</ele>
        <time>2014-02-23T09:44:03Z</time>
      </trkpt>
      <trkpt lat="50.566" lon="4.25474">
        <ele>99</ele>
        <time>2014-02-23T09:44:14Z</time>
      </trkpt>
      <trkpt lat="50.56606" lon="4.25456">
        <ele>99</ele>
        <time>2014-02-23T09:44:25Z</time>
      </trkpt>
      <trkpt lat="50.56612" lon="4.25439">
        <ele>102</ele>
        <time>2014-02-23T09:44:37Z</time>
      </trkpt>
      <trkpt lat="50.5662" lon="4.25422">
        <ele>103</ele>
        <time>2014-02-23T09:44:48Z</time>
      </trkpt>
      <trkpt lat="50.56629" lon="4.2541">
        <ele>107</ele>
        <time>2014-02-23T09:44:58Z</time>
      </trkpt>
      <trkpt lat="50.56636" lon="4.25399">
        <ele>112</ele>
        <time>2014-02-23T09:45:10Z</time>
      </trkpt>
      <trkpt lat="50.56641" lon="4.25385">
        <ele>112</ele>
        <time>2014-02-23T09:45:20Z</time>
      </trkpt>
      <trkpt lat="50.56642" lon="4.25379">
        <ele>107</ele>
        <time>2014-02-23T09:45:32Z</time>
      </trkpt>
      <trkpt lat="50.56638" lon="4.25367">
        <ele>99</ele>
        <time>2014-02-23T09:45:43Z</time>
      </trkpt>
      <trkpt lat="50.56629" lon="4.25357">
        <ele>93</ele>
        <time>2014-02-23T09:45:54Z</time>
      </trkpt>
      <trkpt lat="50.5661" lon="4.25332">
        <ele>87</ele>
        <time>2014-02-23T09:46:13Z</time>
      </trkpt>
      <trkpt lat="50.56598" lon="4.25305">
        <ele>93</ele>
        <time>2014-02-23T09:46:27Z</time>
      </trkpt>
      <trkpt lat="50.56596" lon="4.253">
        <ele>93</ele>
        <time>2014-02-23T09:46:29Z</time>
      </trkpt>
      <trkpt lat="50.5659" lon="4.25289">
        <ele>96</ele>
        <time>2014-02-23T09:46:35Z</time>
      </trkpt>
      <trkpt lat="50.56585" lon="4.25281">
        <ele>95</ele>
        <time>2014-02-23T09:46:41Z</time>
      </trkpt>
      <trkpt lat="50.56573" lon="4.25267">
        <ele>95</ele>
        <time>2014-02-23T09:46:51Z</time>
      </trkpt>
      <trkpt lat="50.56566" lon="4.25263">
        <ele>91</ele>
        <time>2014-02-23T09:46:57Z</time>
      </trkpt>
      <trkpt lat="50.56559" lon="4.25257">
        <ele>93</ele>
        <time>2014-02-23T09:47:02Z</time>
      </trkpt>
      <trkpt lat="50.5655" lon="4.25251">
        <ele>92</ele>
        <time>2014-02-23T09:47:09Z</time>
      </trkpt>
      <trkpt lat="50.56545" lon="4.25248">
        <ele>88</ele>
        <time>2014-02-23T09:47:15Z</time>
      </trkpt>
      <trkpt lat="50.56537" lon="4.25241">
        <ele>90</ele>
        <time>2014-02-23T09:47:22Z</time>
      </trkpt>
      <trkpt lat="50.5653" lon="4.25239">
        <ele>84</ele>
        <time>2014-02-23T09:47:28Z</time>
      </trkpt>
      <trkpt lat="50.56522" lon="4.25231">
        <ele>86</ele>
        <time>2014-02-23T09:47:35Z</time>
      </trkpt>
      <trkpt lat="50.56514" lon="4.25222">
        <ele>89</ele>
        <time>2014-02-23T09:47:41Z</time>
      </trkpt>
      <trkpt lat="50.56506" lon="4.25217">
        <ele>90</ele>
        <time>2014-02-23T09:47:47Z</time>
      </trkpt>
      <trkpt lat="50.56497" lon="4.25207">
        <ele>96</ele>
        <time>2014-02-23T09:47:53Z</time>
      </trkpt>
      <trkpt lat="50.56489" lon="4.25197">
        <ele>100</ele>
        <time>2014-02-23T09:47:59Z</time>
      </trkpt>
      <trkpt lat="50.56479" lon="4.2519">
        <ele>106</ele>
        <time>2014-02-23T09:48:05Z</time>
      </trkpt>
      <trkpt lat="50.56471" lon="4.25186">
        <ele>105</ele>
        <time>2014-02-23T09:48:11Z</time>
      </trkpt>
      <trkpt lat="50.56466" lon="4.25183">
        <ele>101</ele>
        <time>2014-02-23T09:48:17Z</time>
      </trkpt>
      <trkpt lat="50.56462" lon="4.25179">
        <ele>101</ele>
        <time>2014-02-23T09:48:23Z</time>
      </trkpt>
      <trkpt lat="50.56457" lon="4.25174">
        <ele>104</ele>
        <time>2014-02-23T09:48:29Z</time>
      </trkpt>
      <trkpt lat="50.5645" lon="4.25167">
        <ele>105</ele>
        <time>2014-02-23T09:48:35Z</time>
      </trkpt>
      <trkpt lat="50.56445" lon="4.25161">
        <ele>112</ele>
        <time>2014-02-23T09:48:41Z</time>
      </trkpt>
      <trkpt lat="50.56433" lon="4.25149">
        <ele>116</ele>
        <time>2014-02-23T09:48:52Z</time>
      </trkpt>
      <trkpt lat="50.56432" lon="4.25148">
        <ele>116</ele>
        <time>2014-02-23T09:48:53Z</time>
      </trkpt>
      <trkpt lat="50.56424" lon="4.25139">
        <ele>117</ele>
        <time>2014-02-23T09:48:59Z</time>
      </trkpt>
      <trkpt lat="50.56414" lon="4.25133">
        <ele>117</ele>
        <time>2014-02-23T09:49:06Z</time>
      </trkpt>
      <trkpt lat="50.56406" lon="4.25128">
        <ele>118</ele>
        <time>2014-02-23T09:49:11Z</time>
      </trkpt>
    </trkseg>
  </trk>
</gpx>